createdAt,value
2022-08-20T00:01:01.811Z,22.52
2022-08-20T00:03:35.845Z,22.54
2022-08-20T00:06:09.056Z,22.63
2022-08-20T00:08:37.613Z,22.65
2022-08-20T00:11:07.548Z,22.70
2022-08-20T00:13:40.968Z,22.77
2022-08-20T00:16:09.520Z,22.75
2022-08-20T00:18:37.887Z,22.84
2022-08-20T00:21:19.125Z,22.97
2022-08-20T00:23:49.589Z,22.97
2022-08-20T00:26:18.617Z,23.00
2022-08-20T00:28:46.150Z,23.11
2022-08-20T00:31:17.159Z,23.13
2022-08-20T00:33:45.189Z,23.13
2022-08-20T00:36:12.851Z,23.08
2022-08-20T00:38:43.083Z,22.99
2022-08-20T00:41:14.536Z,23.02
2022-08-20T00:43:52.234Z,23.01
2022-08-20T00:46:31.309Z,22.97
2022-08-20T00:49:02.597Z,22.97
2022-08-20T00:51:42.653Z,22.79
2022-08-20T00:54:16.277Z,22.90
2022-08-20T00:56:47.308Z,22.85
2022-08-20T00:59:18.945Z,22.85
2022-08-20T01:01:55.822Z,22.87
2022-08-20T01:04:29.216Z,22.84
2022-08-20T01:06:56.642Z,22.85
2022-08-20T01:09:50.067Z,22.85
2022-08-20T01:12:13.784Z,22.83
2022-08-20T01:14:45.551Z,22.79
2022-08-20T01:17:18.865Z,22.82
2022-08-20T01:20:02.023Z,22.77
2022-08-20T01:23:44.346Z,22.76
2022-08-20T01:26:19.510Z,22.82
2022-08-20T01:28:58.930Z,22.87
2022-08-20T01:31:29.833Z,22.89
2022-08-20T01:33:59.118Z,22.97
2022-08-20T01:36:45.937Z,22.96
2022-08-20T01:39:26.108Z,23.06
2022-08-20T01:42:08.931Z,23.09
2022-08-20T01:44:38.853Z,23.13
2022-08-20T01:47:38.593Z,23.20
2022-08-20T01:50:27.864Z,23.20
2022-08-20T01:53:14.405Z,23.26
2022-08-20T01:55:41.882Z,23.24
2022-08-20T01:58:09.319Z,23.33
2022-08-20T02:00:37.127Z,23.40
2022-08-20T02:03:05.003Z,23.41
2022-08-20T02:05:33.714Z,23.48
2022-08-20T02:08:02.272Z,23.64
2022-08-20T02:10:31.898Z,23.65
2022-08-20T02:13:01.281Z,23.69
2022-08-20T02:15:48.592Z,23.65
2022-08-20T02:18:17.299Z,23.70
2022-08-20T02:20:45.629Z,23.62
2022-08-20T02:23:13.293Z,23.60
2022-08-20T02:25:44.100Z,23.55
2022-08-20T02:28:13.257Z,23.61
2022-08-20T02:30:45.410Z,23.64
2022-08-20T02:33:16.267Z,23.57
2022-08-20T02:35:47.354Z,23.54
2022-08-20T02:38:16.019Z,23.63
2022-08-20T02:40:45.179Z,23.54
2022-08-20T02:43:13.292Z,23.61
2022-08-20T02:45:44.132Z,23.49
2022-08-20T02:48:21.104Z,23.56
2022-08-20T02:50:57.625Z,23.54
2022-08-20T02:53:27.092Z,23.55
2022-08-20T02:55:54.420Z,23.53
2022-08-20T02:58:22.732Z,23.62
2022-08-20T03:00:50.620Z,23.52
2022-08-20T03:03:22.903Z,23.43
2022-08-20T03:05:57.643Z,23.48
2022-08-20T03:08:27.778Z,23.48
2022-08-20T03:10:55.578Z,23.62
2022-08-20T03:13:23.690Z,23.64
2022-08-20T03:15:58.837Z,23.73
2022-08-20T03:18:31.875Z,23.68
2022-08-20T03:20:59.479Z,23.61
2022-08-20T03:23:26.861Z,23.48
2022-08-20T03:25:54.152Z,23.33
2022-08-20T03:28:21.512Z,23.29
2022-08-20T03:30:49.133Z,23.16
2022-08-20T03:33:16.679Z,23.19
2022-08-20T03:35:44.226Z,23.21
2022-08-20T03:38:13.629Z,23.25
2022-08-20T03:40:42.855Z,23.37
2022-08-20T03:43:10.643Z,23.45
2022-08-20T03:45:40.664Z,23.36
2022-08-20T03:48:11.149Z,23.38
2022-08-20T03:50:42.662Z,23.36
2022-08-20T03:53:14.622Z,23.52
2022-08-20T03:55:45.622Z,23.57
2022-08-20T03:58:34.726Z,23.57
2022-08-20T04:01:03.427Z,23.57
2022-08-20T04:03:31.010Z,23.57
2022-08-20T04:05:59.036Z,23.66
2022-08-20T04:08:29.619Z,23.61
2022-08-20T04:10:58.820Z,23.69
2022-08-20T04:13:28.176Z,23.73
2022-08-20T04:15:57.727Z,23.72
2022-08-20T04:18:26.640Z,23.63
2022-08-20T04:20:54.467Z,23.66
2022-08-20T04:23:22.751Z,23.65
2022-08-20T04:25:50.211Z,23.58
2022-08-20T04:28:27.596Z,23.58
2022-08-20T04:30:57.061Z,23.61
2022-08-20T04:33:33.963Z,23.67
2022-08-20T04:36:06.199Z,23.73
2022-08-20T04:38:49.817Z,23.80
2022-08-20T04:41:24.180Z,23.85
2022-08-20T04:43:56.342Z,23.84
2022-08-20T04:46:28.200Z,23.90
2022-08-20T04:48:57.042Z,23.89
2022-08-20T04:51:24.915Z,23.97
2022-08-20T04:53:54.293Z,24.10
2022-08-20T04:56:26.135Z,24.17
2022-08-20T04:58:55.757Z,24.27
2022-08-20T05:01:26.562Z,24.12
2022-08-20T05:03:55.098Z,24.21
2022-08-20T05:06:28.808Z,24.22
2022-08-20T05:08:58.168Z,24.23
2022-08-20T05:11:36.068Z,24.26
2022-08-20T05:14:09.640Z,24.22
2022-08-20T05:16:41.310Z,24.18
2022-08-20T05:19:11.534Z,24.11
2022-08-20T05:21:41.862Z,24.21
2022-08-20T05:24:10.329Z,24.15
2022-08-20T05:26:38.351Z,24.10
2022-08-20T05:29:07.143Z,24.14
2022-08-20T05:31:35.115Z,24.21
2022-08-20T05:34:10.743Z,24.36
2022-08-20T05:36:47.016Z,24.43
2022-08-20T05:39:19.445Z,24.65
2022-08-20T05:41:46.946Z,24.75
2022-08-20T05:44:15.192Z,24.94
2022-08-20T05:46:44.414Z,25.05
2022-08-20T05:49:15.955Z,25.08
2022-08-20T05:51:44.241Z,25.14
2022-08-20T05:54:12.649Z,25.24
2022-08-20T05:56:40.059Z,25.33
2022-08-20T05:59:09.630Z,25.44
2022-08-20T06:01:39.575Z,25.51
2022-08-20T06:04:28.507Z,25.60
2022-08-20T06:07:04.931Z,25.58
2022-08-20T06:09:35.433Z,25.63
2022-08-20T06:12:06.281Z,25.48
2022-08-20T06:14:35.200Z,25.27
2022-08-20T06:17:08.830Z,25.21
2022-08-20T06:19:39.431Z,25.33
2022-08-20T06:22:18.230Z,25.43
2022-08-20T06:24:49.250Z,25.52
2022-08-20T06:27:20.858Z,25.46
2022-08-20T06:29:49.024Z,25.49
2022-08-20T06:32:18.447Z,25.47
2022-08-20T06:34:50.907Z,25.56
2022-08-20T06:37:20.716Z,25.51
2022-08-20T06:39:48.067Z,25.52
2022-08-20T06:42:20.657Z,25.60
2022-08-20T06:44:50.531Z,25.60
2022-08-20T06:47:20.074Z,25.56
2022-08-20T06:49:49.194Z,25.10
2022-08-20T06:52:17.510Z,25.07
2022-08-20T06:54:47.065Z,25.09
2022-08-20T06:57:15.011Z,25.11
2022-08-20T06:59:42.272Z,24.97
2022-08-20T07:02:09.534Z,25.01
2022-08-20T07:04:37.706Z,24.97
2022-08-20T07:07:15.688Z,24.77
2022-08-20T07:09:42.923Z,24.58
2022-08-20T07:12:10.864Z,24.59
2022-08-20T07:14:38.419Z,24.58
2022-08-20T07:17:09.688Z,24.66
2022-08-20T07:19:39.491Z,24.54
2022-08-20T07:22:07.282Z,24.65
2022-08-20T07:24:37.864Z,24.73
2022-08-20T07:27:08.039Z,24.80
2022-08-20T07:29:53.791Z,24.92
2022-08-20T07:32:39.449Z,24.89
2022-08-20T07:35:10.173Z,24.97
2022-08-20T07:37:42.128Z,24.93
2022-08-20T07:40:15.643Z,25.09
2022-08-20T07:42:43.038Z,25.12
2022-08-20T07:45:13.558Z,25.01
2022-08-20T07:47:43.114Z,25.09
2022-08-20T07:50:13.720Z,25.01
2022-08-20T07:52:41.168Z,24.91
2022-08-20T07:55:11.549Z,24.82
2022-08-20T07:57:39.297Z,24.76
2022-08-20T08:00:09.125Z,24.79
2022-08-20T08:02:36.891Z,24.53
2022-08-20T08:05:08.004Z,24.26
2022-08-20T08:07:36.895Z,24.18
2022-08-20T08:10:07.735Z,24.21
2022-08-20T08:12:47.854Z,24.24
2022-08-20T08:15:18.174Z,24.31
2022-08-20T08:17:48.925Z,24.37
2022-08-20T08:20:17.351Z,24.42
2022-08-20T08:22:44.709Z,24.36
2022-08-20T08:25:13.446Z,24.29
2022-08-20T08:27:41.456Z,24.16
2022-08-20T08:30:10.231Z,24.22
2022-08-20T08:32:58.805Z,24.31
2022-08-20T08:35:26.955Z,24.25
2022-08-20T08:37:54.735Z,24.38
2022-08-20T08:40:22.739Z,24.35
2022-08-20T08:42:58.230Z,24.30
2022-08-20T08:45:38.182Z,24.17
2022-08-20T08:48:05.885Z,24.02
2022-08-20T08:50:53.282Z,23.77
2022-08-20T08:53:25.507Z,23.40
2022-08-20T08:55:53.189Z,23.05
2022-08-20T08:58:20.448Z,22.82
2022-08-20T09:00:56.048Z,22.58
2022-08-20T09:03:29.472Z,22.50
2022-08-20T09:06:00.215Z,22.36
2022-08-20T09:08:33.842Z,22.27
2022-08-20T09:11:02.873Z,22.10
2022-08-20T09:13:30.276Z,21.91
2022-08-20T09:15:57.594Z,21.86
2022-08-20T09:18:25.020Z,21.84
2022-08-20T09:20:52.841Z,21.79
2022-08-20T09:23:20.157Z,21.82
2022-08-20T09:25:48.272Z,21.86
2022-08-20T09:28:15.669Z,21.91
2022-08-20T09:30:43.238Z,21.87
2022-08-20T09:33:12.231Z,21.89
2022-08-20T09:35:40.510Z,21.98
2022-08-20T09:38:08.605Z,22.05
2022-08-20T09:40:35.909Z,22.07
2022-08-20T09:43:06.353Z,22.18
2022-08-20T09:45:34.924Z,22.17
2022-08-20T09:48:02.622Z,22.14
2022-08-20T09:50:32.753Z,22.20
2022-08-20T09:53:02.652Z,22.19
2022-08-20T09:55:39.016Z,22.27
2022-08-20T09:58:26.470Z,22.34
2022-08-20T10:00:53.788Z,22.35
2022-08-20T10:03:21.192Z,22.43
2022-08-20T10:05:48.807Z,22.43
2022-08-20T10:08:16.182Z,22.55
2022-08-20T10:10:43.814Z,22.73
2022-08-20T10:13:13.257Z,22.80
2022-08-20T10:15:42.844Z,22.88
2022-08-20T10:18:12.291Z,22.90
2022-08-20T10:20:40.696Z,22.96
2022-08-20T10:23:08.355Z,23.10
2022-08-20T10:25:35.836Z,23.16
2022-08-20T10:28:04.417Z,23.30
2022-08-20T10:30:31.945Z,23.33
2022-08-20T10:32:59.230Z,23.50
2022-08-20T10:35:27.099Z,23.55
2022-08-20T10:37:54.559Z,23.56
2022-08-20T10:40:21.989Z,23.57
2022-08-20T10:42:49.381Z,23.55
2022-08-20T10:45:17.247Z,23.57
2022-08-20T10:47:45.257Z,23.41
2022-08-20T10:50:16.020Z,23.39
2022-08-20T10:52:44.020Z,23.36
2022-08-20T10:55:11.441Z,23.30
2022-08-20T10:57:41.123Z,23.31
2022-08-20T11:00:10.703Z,23.41
2022-08-20T11:02:38.241Z,23.47
2022-08-20T11:05:07.270Z,23.51
2022-08-20T11:07:55.109Z,23.49
2022-08-20T11:10:34.241Z,23.47
2022-08-20T11:13:03.299Z,23.51
2022-08-20T11:15:30.737Z,23.49
2022-08-20T11:17:58.190Z,23.68
2022-08-20T11:20:26.769Z,23.78
2022-08-20T11:22:55.140Z,23.80
2022-08-20T11:25:22.522Z,23.86
2022-08-20T11:27:51.489Z,23.93
2022-08-20T11:30:32.304Z,23.85
2022-08-20T11:33:00.965Z,23.87
2022-08-20T11:35:48.939Z,23.81
2022-08-20T11:38:18.160Z,23.78
2022-08-20T11:40:47.112Z,23.70
2022-08-20T11:43:16.709Z,23.60
2022-08-20T11:45:57.563Z,23.57
2022-08-20T11:48:24.996Z,23.46
2022-08-20T11:50:52.525Z,23.36
2022-08-20T11:53:20.004Z,23.35
2022-08-20T11:55:49.137Z,23.19
2022-08-20T11:58:16.839Z,23.19
2022-08-20T12:00:44.562Z,23.17
2022-08-20T12:03:12.217Z,23.12
2022-08-20T12:05:42.420Z,23.17
2022-08-20T12:08:10.279Z,23.15
2022-08-20T12:10:52.703Z,23.05
2022-08-20T12:13:19.943Z,22.90
2022-08-20T12:15:50.976Z,22.85
2022-08-20T12:18:18.143Z,22.75
2022-08-20T12:20:45.597Z,22.83
2022-08-20T12:23:14.340Z,22.83
2022-08-20T12:25:41.808Z,22.90
2022-08-20T12:28:09.082Z,22.82
2022-08-20T12:30:37.025Z,22.93
2022-08-20T12:33:04.668Z,22.96
2022-08-20T12:35:32.665Z,23.08
2022-08-20T12:38:05.714Z,23.08
2022-08-20T12:40:34.566Z,23.13
2022-08-20T12:43:03.092Z,23.18
2022-08-20T12:45:31.783Z,23.22
2022-08-20T12:48:11.445Z,23.31
2022-08-20T12:50:42.786Z,23.31
2022-08-20T12:53:11.084Z,23.33
2022-08-20T12:55:38.522Z,23.35
2022-08-20T12:58:09.480Z,23.33
2022-08-20T13:00:43.623Z,23.28
2022-08-20T13:03:13.154Z,23.21
2022-08-20T13:05:42.450Z,23.22
2022-08-20T13:08:12.737Z,23.06
2022-08-20T13:10:44.603Z,23.09
2022-08-20T13:13:13.487Z,23.03
2022-08-20T13:15:41.252Z,22.90
2022-08-20T13:18:09.352Z,22.94
2022-08-20T13:20:37.571Z,22.88
2022-08-20T13:23:05.579Z,22.79
2022-08-20T13:25:34.104Z,22.76
2022-08-20T13:28:04.717Z,22.75
2022-08-20T13:30:35.501Z,22.69
2022-08-20T13:33:03.816Z,22.70
2022-08-20T13:35:31.525Z,22.76
2022-08-20T13:37:58.767Z,22.63
2022-08-20T13:40:26.583Z,22.57
2022-08-20T13:42:53.963Z,22.53
2022-08-20T13:45:21.570Z,22.55
2022-08-20T13:47:53.538Z,22.55
2022-08-20T13:50:23.662Z,22.47
2022-08-20T13:52:51.055Z,22.48
2022-08-20T13:55:23.136Z,22.40
2022-08-20T13:57:51.599Z,22.42
2022-08-20T14:00:31.686Z,22.43
2022-08-20T14:03:04.971Z,22.43
2022-08-20T14:05:33.393Z,22.44
2022-08-20T14:08:09.144Z,22.50
2022-08-20T14:10:37.855Z,22.50
2022-08-20T14:13:07.222Z,22.56
2022-08-20T14:15:36.053Z,22.56
2022-08-20T14:18:05.008Z,22.50
2022-08-20T14:20:34.566Z,22.55
2022-08-20T14:23:06.186Z,22.60
2022-08-20T14:25:34.233Z,22.61
2022-08-20T14:28:11.254Z,22.55
2022-08-20T14:30:38.791Z,22.55
2022-08-20T14:33:06.124Z,22.57
2022-08-20T14:35:34.347Z,22.49
2022-08-20T14:38:02.804Z,22.43
2022-08-20T14:40:33.738Z,22.44
2022-08-20T14:43:01.350Z,22.48
2022-08-20T14:45:29.398Z,22.45
2022-08-20T14:47:58.442Z,22.50
2022-08-20T14:50:32.987Z,22.53
2022-08-20T14:53:01.035Z,22.53
2022-08-20T14:55:33.778Z,22.53
2022-08-20T14:58:00.990Z,22.52
2022-08-20T15:00:31.175Z,22.54
2022-08-20T15:02:58.719Z,22.49
2022-08-20T15:05:27.074Z,22.53
2022-08-20T15:07:56.697Z,22.56
2022-08-20T15:10:27.330Z,22.60
2022-08-20T15:12:55.071Z,22.50
2022-08-20T15:15:23.901Z,22.41
2022-08-20T15:17:56.353Z,22.41
2022-08-20T15:20:27.453Z,22.52
2022-08-20T15:22:55.379Z,22.56
2022-08-20T15:25:25.382Z,22.55
2022-08-20T15:27:59.286Z,22.54
2022-08-20T15:30:31.391Z,22.49
2022-08-20T15:32:59.002Z,22.46
2022-08-20T15:35:28.451Z,22.46
2022-08-20T15:37:58.318Z,22.46
2022-08-20T15:40:29.071Z,22.45
2022-08-20T15:42:58.517Z,22.48
2022-08-20T15:45:26.437Z,22.49
2022-08-20T15:48:15.829Z,22.49
2022-08-20T15:51:20.376Z,22.56
2022-08-20T15:54:09.617Z,22.51
2022-08-20T15:56:59.129Z,22.49
2022-08-20T15:59:39.458Z,22.49
2022-08-20T16:02:41.038Z,22.49
2022-08-20T16:05:30.237Z,22.42
2022-08-20T16:08:15.892Z,22.39
2022-08-20T16:11:07.983Z,22.36
2022-08-20T16:13:44.906Z,22.42
2022-08-20T16:16:31.455Z,22.37
2022-08-20T16:19:01.288Z,22.27
2022-08-20T16:21:37.772Z,22.18
2022-08-20T16:24:07.260Z,22.29
2022-08-20T16:27:01.572Z,22.29
2022-08-20T16:29:45.692Z,22.25
2022-08-20T16:32:19.334Z,22.21
2022-08-20T16:34:56.894Z,22.18
2022-08-20T16:37:34.813Z,22.26
2022-08-20T16:40:18.570Z,22.20
2022-08-20T16:42:51.689Z,22.20
2022-08-20T16:45:25.334Z,22.36
2022-08-20T16:47:58.668Z,22.40
2022-08-20T16:50:34.522Z,22.35
2022-08-20T16:53:01.987Z,22.28
2022-08-20T16:55:29.703Z,22.29
2022-08-20T16:57:56.960Z,22.18
2022-08-20T17:00:42.543Z,22.26
2022-08-20T17:03:33.576Z,22.27
2022-08-20T17:06:37.497Z,22.16
2022-08-20T17:09:14.672Z,22.13
2022-08-20T17:11:47.880Z,22.14
2022-08-20T17:14:18.471Z,22.17
2022-08-20T17:16:52.625Z,22.24
2022-08-20T17:19:31.872Z,22.30
2022-08-20T17:22:15.238Z,22.29
2022-08-20T17:24:42.884Z,22.23
2022-08-20T17:27:15.226Z,22.17
2022-08-20T17:29:55.605Z,22.16
2022-08-20T17:32:27.308Z,22.07
2022-08-20T17:35:01.200Z,22.06
2022-08-20T17:37:37.395Z,22.00
2022-08-20T17:40:28.782Z,22.06
2022-08-20T17:43:06.228Z,22.07
2022-08-20T17:45:44.905Z,22.04
2022-08-20T17:48:27.751Z,22.08
2022-08-20T17:50:55.214Z,22.09
2022-08-20T17:53:38.612Z,22.14
2022-08-20T17:56:20.812Z,22.12
2022-08-20T17:58:54.450Z,22.19
2022-08-20T18:01:24.089Z,22.22
2022-08-20T18:03:53.430Z,22.27
2022-08-20T18:06:48.863Z,22.27
2022-08-20T18:09:36.940Z,22.36
2022-08-20T18:12:07.475Z,22.41
2022-08-20T18:15:01.340Z,22.48
2022-08-20T18:18:08.374Z,22.53
2022-08-20T18:20:54.244Z,22.61
2022-08-20T18:23:30.726Z,22.60
2022-08-20T18:26:06.395Z,22.67
2022-08-20T18:28:54.722Z,22.71
2022-08-20T18:31:44.509Z,22.76
2022-08-20T18:34:19.024Z,22.81
2022-08-20T19:38:32.740Z,24.33
2022-08-20T19:41:11.027Z,24.33
2022-08-20T19:43:44.523Z,24.41
2022-08-20T19:46:13.539Z,24.58
2022-08-20T19:49:15.995Z,24.70
2022-08-20T19:52:24.390Z,24.82
2022-08-20T19:54:54.722Z,24.74
2022-08-20T19:57:25.340Z,24.94
2022-08-20T20:00:08.853Z,25.01
2022-08-20T20:02:36.414Z,25.10
2022-08-20T20:05:08.773Z,25.02
2022-08-20T20:07:40.651Z,25.08
2022-08-20T20:10:10.936Z,25.09
2022-08-20T20:12:39.144Z,25.20
2022-08-20T20:15:08.153Z,25.08
2022-08-20T20:17:37.130Z,25.26
2022-08-20T20:20:28.734Z,25.32
2022-08-20T20:23:06.644Z,25.23
2022-08-20T20:25:34.529Z,25.28
2022-08-20T20:28:18.097Z,25.33
2022-08-20T20:30:47.097Z,25.27
2022-08-20T20:33:24.061Z,25.33
2022-08-20T20:36:18.784Z,25.33
2022-08-20T20:39:00.760Z,25.34
2022-08-20T20:41:29.933Z,25.33
2022-08-20T20:44:35.203Z,25.40
2022-08-20T20:47:09.449Z,25.23
2022-08-20T20:49:57.186Z,25.35
2022-08-20T20:52:38.344Z,25.33
2022-08-20T20:55:14.771Z,25.38
2022-08-20T20:57:42.371Z,25.31
2022-08-20T21:00:17.605Z,25.32
2022-08-20T21:02:46.189Z,25.32
2022-08-20T21:05:15.383Z,25.34
2022-08-20T21:07:50.547Z,25.31
2022-08-20T21:10:21.617Z,25.21
2022-08-20T21:12:52.908Z,25.35
2022-08-20T21:15:23.064Z,25.36
2022-08-20T21:17:52.225Z,25.30
2022-08-20T21:20:23.500Z,25.38
2022-08-20T21:22:50.880Z,25.27
2022-08-20T21:25:19.078Z,25.35
2022-08-20T21:27:49.647Z,25.31
2022-08-20T21:30:18.258Z,25.33
2022-08-20T21:32:45.674Z,25.24
2022-08-20T21:35:13.676Z,25.27
2022-08-20T21:37:40.969Z,25.21
2022-08-20T21:40:09.929Z,25.21
2022-08-20T21:42:40.183Z,25.28
2022-08-20T21:45:10.284Z,25.28
2022-08-20T21:47:37.708Z,25.27
2022-08-20T21:50:06.189Z,25.29
2022-08-20T21:52:35.457Z,25.23
2022-08-20T21:55:02.757Z,25.27
2022-08-20T21:57:33.393Z,25.27
2022-08-20T22:00:04.856Z,25.23
2022-08-20T22:02:32.396Z,25.16
2022-08-20T22:04:59.932Z,25.12
2022-08-20T22:07:27.327Z,25.10
2022-08-20T22:09:55.486Z,25.09
2022-08-20T22:12:25.051Z,25.05
2022-08-20T22:14:53.175Z,25.08
2022-08-20T22:17:20.646Z,24.97
2022-08-20T22:19:48.229Z,25.01
2022-08-20T22:22:17.600Z,24.99
2022-08-20T22:24:45.850Z,24.87
2022-08-20T22:27:13.843Z,24.94
2022-08-20T22:29:41.232Z,24.88
2022-08-20T22:32:08.663Z,24.88
2022-08-20T22:34:36.452Z,24.88
2022-08-20T22:37:04.420Z,24.82
2022-08-20T22:39:31.873Z,24.71
2022-08-20T22:41:59.517Z,24.84
2022-08-20T22:44:27.119Z,24.76
2022-08-20T22:46:59.822Z,24.79
2022-08-20T22:49:31.543Z,24.63
2022-08-20T22:51:59.305Z,24.69
2022-08-20T22:54:28.078Z,24.72
2022-08-20T22:56:55.635Z,24.66
2022-08-20T22:59:23.469Z,24.65
2022-08-20T23:01:51.882Z,24.57
2022-08-20T23:04:29.980Z,24.49
2022-08-20T23:06:58.152Z,24.41
2022-08-20T23:09:26.290Z,24.41
2022-08-20T23:11:54.138Z,24.43
2022-08-20T23:14:21.673Z,24.32
2022-08-20T23:16:57.843Z,24.36
2022-08-20T23:19:25.048Z,24.34
2022-08-20T23:21:53.045Z,24.46
2022-08-20T23:24:20.573Z,24.42
2022-08-20T23:26:52.678Z,24.33
2022-08-20T23:29:25.481Z,24.40
2022-08-20T23:31:55.668Z,24.41
2022-08-20T23:34:23.989Z,24.29
2022-08-20T23:36:52.711Z,24.19
2022-08-20T23:39:20.835Z,24.18
2022-08-20T23:41:48.296Z,24.22
2022-08-20T23:44:26.521Z,24.11
2022-08-20T23:47:01.010Z,24.17
2022-08-20T23:49:29.637Z,24.15
2022-08-20T23:51:58.011Z,24.11
2022-08-20T23:54:25.299Z,24.23
2022-08-20T23:56:56.976Z,24.19
2022-08-20T23:59:24.660Z,24.25
